sensor_id;sensor_type;location;lat;lon;timestamp;pressure;altitude;pressure_sealevel;temperature;humidity
41254;BME280;26987;59.928;30.306;2024-02-28T00:00:05;101784.41;;;1.60;100.00
41254;BME280;26987;59.928;30.306;2024-02-28T00:02:34;101800.25;;;1.72;100.00
41254;BME280;26987;59.928;30.306;2024-02-28T00:05:01;101784.28;;;1.62;100.00
41254;BME280;26987;59.928;30.306;2024-02-28T00:07:31;101773.47;;;1.65;100.00
41254;BME280;26987;59.928;30.306;2024-02-28T00:09:59;101785.25;;;1.61;100.00
41254;BME280;26987;59.928;30.306;2024-02-28T00:12:27;101792.94;;;1.53;100.00
41254;BME280;26987;59.928;30.306;2024-02-28T00:14:55;101782.25;;;1.43;100.00
41254;BME280;26987;59.928;30.306;2024-02-28T00:17:23;101769.03;;;1.31;100.00
41254;BME280;26987;59.928;30.306;2024-02-28T00:19:52;101776.25;;;1.29;100.00
41254;BME280;26987;59.928;30.306;2024-02-28T00:22:19;101767.00;;;1.23;100.00
41254;BME280;26987;59.928;30.306;2024-02-28T00:24:49;101780.56;;;1.30;100.00
41254;BME280;26987;59.928;30.306;2024-02-28T00:27:17;101782.75;;;1.25;100.00
41254;BME280;26987;59.928;30.306;2024-02-28T00:29:45;101748.97;;;1.06;100.00
41254;BME280;26987;59.928;30.306;2024-02-28T00:32:13;101743.09;;;1.02;100.00
41254;BME280;26987;59.928;30.306;2024-02-28T00:34:43;101788.88;;;1.37;100.00
41254;BME280;26987;59.928;30.306;2024-02-28T00:37:11;101765.81;;;1.28;100.00
41254;BME280;26987;59.928;30.306;2024-02-28T00:39:39;101752.81;;;1.24;100.00
41254;BME280;26987;59.928;30.306;2024-02-28T00:42:09;101782.34;;;1.53;100.00
41254;BME280;26987;59.928;30.306;2024-02-28T00:44:37;101759.16;;;1.45;100.00
41254;BME280;26987;59.928;30.306;2024-02-28T00:47:05;101784.16;;;1.63;100.00
41254;BME280;26987;59.928;30.306;2024-02-28T00:49:33;101781.28;;;1.67;100.00
41254;BME280;26987;59.928;30.306;2024-02-28T00:52:01;101776.47;;;1.60;100.00
41254;BME280;26987;59.928;30.306;2024-02-28T00:54:29;101783.81;;;1.68;100.00
41254;BME280;26987;59.928;30.306;2024-02-28T00:56:57;101781.63;;;1.73;100.00
41254;BME280;26987;59.928;30.306;2024-02-28T00:59:27;101779.22;;;1.82;100.00
41254;BME280;26987;59.928;30.306;2024-02-28T01:01:55;101778.47;;;1.80;100.00
41254;BME280;26987;59.928;30.306;2024-02-28T01:04:23;101769.00;;;1.77;100.00
41254;BME280;26987;59.928;30.306;2024-02-28T01:06:51;101771.28;;;1.82;100.00
41254;BME280;26987;59.928;30.306;2024-02-28T01:09:19;101771.84;;;1.85;100.00
41254;BME280;26987;59.928;30.306;2024-02-28T01:11:47;101780.03;;;1.94;100.00
41254;BME280;26987;59.928;30.306;2024-02-28T01:14:15;101751.22;;;1.79;100.00
41254;BME280;26987;59.928;30.306;2024-02-28T01:16:45;101785.66;;;2.00;100.00
41254;BME280;26987;59.928;30.306;2024-02-28T01:19:13;101760.09;;;1.89;100.00
41254;BME280;26987;59.928;30.306;2024-02-28T01:21:40;101782.13;;;2.11;100.00
41254;BME280;26987;59.928;30.306;2024-02-28T01:24:08;101787.69;;;2.08;100.00
41254;BME280;26987;59.928;30.306;2024-02-28T01:26:36;101779.75;;;2.08;100.00
41254;BME280;26987;59.928;30.306;2024-02-28T01:29:04;101775.66;;;2.04;100.00
41254;BME280;26987;59.928;30.306;2024-02-28T01:31:32;101790.84;;;1.91;100.00
41254;BME280;26987;59.928;30.306;2024-02-28T01:34:01;101782.44;;;1.85;100.00
41254;BME280;26987;59.928;30.306;2024-02-28T01:36:29;101785.72;;;1.78;100.00
41254;BME280;26987;59.928;30.306;2024-02-28T01:38:57;101749.31;;;1.58;100.00
41254;BME280;26987;59.928;30.306;2024-02-28T01:41:25;101783.91;;;1.89;100.00
41254;BME280;26987;59.928;30.306;2024-02-28T01:43:53;101770.78;;;1.88;100.00
41254;BME280;26987;59.928;30.306;2024-02-28T01:46:23;101770.91;;;1.86;100.00
41254;BME280;26987;59.928;30.306;2024-02-28T01:48:52;101783.66;;;1.93;100.00
41254;BME280;26987;59.928;30.306;2024-02-28T01:51:23;101781.94;;;1.92;100.00
41254;BME280;26987;59.928;30.306;2024-02-28T01:53:52;101757.47;;;1.67;100.00
41254;BME280;26987;59.928;30.306;2024-02-28T01:56:22;101781.13;;;1.80;100.00
41254;BME280;26987;59.928;30.306;2024-02-28T01:58:52;101667.44;;;1.01;100.00
41254;BME280;26987;59.928;30.306;2024-02-28T02:01:21;101763.25;;;1.60;100.00
41254;BME280;26987;59.928;30.306;2024-02-28T02:03:52;101785.47;;;1.69;100.00
41254;BME280;26987;59.928;30.306;2024-02-28T02:06:22;101780.91;;;1.60;100.00
41254;BME280;26987;59.928;30.306;2024-02-28T02:08:50;101788.13;;;1.58;100.00
41254;BME280;26987;59.928;30.306;2024-02-28T02:11:18;101750.88;;;1.26;100.00
41254;BME280;26987;59.928;30.306;2024-02-28T02:13:50;101784.91;;;1.43;100.00
41254;BME280;26987;59.928;30.306;2024-02-28T02:16:19;101780.34;;;1.33;100.00
41254;BME280;26987;59.928;30.306;2024-02-28T02:18:48;101792.47;;;1.36;100.00
41254;BME280;26987;59.928;30.306;2024-02-28T02:21:18;101786.94;;;1.39;100.00
41254;BME280;26987;59.928;30.306;2024-02-28T02:23:48;101749.69;;;1.19;100.00
41254;BME280;26987;59.928;30.306;2024-02-28T02:26:16;101763.03;;;1.29;100.00
41254;BME280;26987;59.928;30.306;2024-02-28T02:28:44;101781.53;;;1.41;100.00
41254;BME280;26987;59.928;30.306;2024-02-28T02:31:13;101745.25;;;1.20;100.00
41254;BME280;26987;59.928;30.306;2024-02-28T02:33:41;101785.84;;;1.42;100.00
41254;BME280;26987;59.928;30.306;2024-02-28T02:36:09;101787.78;;;1.40;100.00
41254;BME280;26987;59.928;30.306;2024-02-28T02:38:37;101782.25;;;1.43;100.00
41254;BME280;26987;59.928;30.306;2024-02-28T02:41:06;101772.25;;;1.46;100.00
41254;BME280;26987;59.928;30.306;2024-02-28T02:43:34;101775.75;;;1.58;100.00
41254;BME280;26987;59.928;30.306;2024-02-28T02:46:02;101783.56;;;1.71;100.00
41254;BME280;26987;59.928;30.306;2024-02-28T02:48:30;101779.56;;;1.77;100.00
41254;BME280;26987;59.928;30.306;2024-02-28T02:50:58;101781.63;;;1.85;100.00
41254;BME280;26987;59.928;30.306;2024-02-28T02:53:26;101787.72;;;1.85;100.00
41254;BME280;26987;59.928;30.306;2024-02-28T02:55:54;101772.81;;;1.84;100.00
41254;BME280;26987;59.928;30.306;2024-02-28T02:58:23;101780.16;;;1.92;100.00
41254;BME280;26987;59.928;30.306;2024-02-28T03:00:51;101784.94;;;1.98;100.00
41254;BME280;26987;59.928;30.306;2024-02-28T03:03:19;101784.59;;;2.03;100.00
41254;BME280;26987;59.928;30.306;2024-02-28T03:05:47;101768.09;;;1.99;100.00
41254;BME280;26987;59.928;30.306;2024-02-28T03:08:15;101780.47;;;2.10;100.00
41254;BME280;26987;59.928;30.306;2024-02-28T03:10:43;101783.09;;;2.10;100.00
41254;BME280;26987;59.928;30.306;2024-02-28T03:13:11;101780.47;;;2.10;100.00
41254;BME280;26987;59.928;30.306;2024-02-28T03:15:40;101786.50;;;2.01;100.00
41254;BME280;26987;59.928;30.306;2024-02-28T03:18:08;101792.53;;;1.92;100.00
41254;BME280;26987;59.928;30.306;2024-02-28T03:20:36;101795.41;;;1.88;100.00
41254;BME280;26987;59.928;30.306;2024-02-28T03:23:05;101757.97;;;1.60;100.00
41254;BME280;26987;59.928;30.306;2024-02-28T03:25:33;101792.81;;;1.77;100.00
41254;BME280;26987;59.928;30.306;2024-02-28T03:28:01;101743.91;;;1.48;100.00
41254;BME280;26987;59.928;30.306;2024-02-28T03:30:29;101795.94;;;1.71;100.00
41254;BME280;26987;59.928;30.306;2024-02-28T03:32:59;101787.25;;;1.69;100.00
41254;BME280;26987;59.928;30.306;2024-02-28T03:35:27;101789.78;;;1.70;100.00
41254;BME280;26987;59.928;30.306;2024-02-28T03:37:54;101791.72;;;1.68;100.00
41254;BME280;26987;59.928;30.306;2024-02-28T03:40:22;101801.59;;;1.78;100.00
41254;BME280;26987;59.928;30.306;2024-02-28T03:42:50;101804.56;;;1.84;100.00
41254;BME280;26987;59.928;30.306;2024-02-28T03:45:18;101803.72;;;1.84;100.00
41254;BME280;26987;59.928;30.306;2024-02-28T03:47:46;101768.31;;;1.63;100.00
41254;BME280;26987;59.928;30.306;2024-02-28T03:50:16;101805.78;;;1.80;100.00
41254;BME280;26987;59.928;30.306;2024-02-28T03:52:44;101805.19;;;1.76;100.00
41254;BME280;26987;59.928;30.306;2024-02-28T03:55:12;101794.75;;;1.63;100.00
41254;BME280;26987;59.928;30.306;2024-02-28T03:57:40;101811.81;;;1.82;100.00
41254;BME280;26987;59.928;30.306;2024-02-28T04:00:09;101806.75;;;1.79;100.00
41254;BME280;26987;59.928;30.306;2024-02-28T04:02:40;101815.63;;;1.78;100.00
41254;BME280;26987;59.928;30.306;2024-02-28T04:05:08;101813.97;;;1.77;100.00
41254;BME280;26987;59.928;30.306;2024-02-28T04:07:37;101805.31;;;1.63;100.00
41254;BME280;26987;59.928;30.306;2024-02-28T04:10:06;101814.81;;;1.66;100.00
41254;BME280;26987;59.928;30.306;2024-02-28T04:12:34;101826.00;;;1.70;100.00
41254;BME280;26987;59.928;30.306;2024-02-28T04:15:02;101827.91;;;1.68;100.00
41254;BME280;26987;59.928;30.306;2024-02-28T04:17:31;101821.91;;;1.66;100.00
41254;BME280;26987;59.928;30.306;2024-02-28T04:19:59;101830.66;;;1.66;100.00
41254;BME280;26987;59.928;30.306;2024-02-28T04:22:31;101824.91;;;1.61;100.00
41254;BME280;26987;59.928;30.306;2024-02-28T04:25:00;101831.16;;;1.71;100.00
41254;BME280;26987;59.928;30.306;2024-02-28T04:27:28;101837.91;;;1.64;100.00
41254;BME280;26987;59.928;30.306;2024-02-28T04:29:56;101832.63;;;1.64;100.00
41254;BME280;26987;59.928;30.306;2024-02-28T04:32:24;101825.03;;;1.59;100.00
41254;BME280;26987;59.928;30.306;2024-02-28T04:34:52;101836.31;;;1.61;100.00
41254;BME280;26987;59.928;30.306;2024-02-28T04:37:20;101819.03;;;1.46;100.00
41254;BME280;26987;59.928;30.306;2024-02-28T04:39:47;101827.91;;;1.45;100.00
41254;BME280;26987;59.928;30.306;2024-02-28T04:42:17;101840.53;;;1.53;100.00
41254;BME280;26987;59.928;30.306;2024-02-28T04:44:45;101841.13;;;1.56;100.00
41254;BME280;26987;59.928;30.306;2024-02-28T04:47:13;101841.38;;;1.53;100.00
41254;BME280;26987;59.928;30.306;2024-02-28T04:49:41;101793.66;;;1.32;100.00
41254;BME280;26987;59.928;30.306;2024-02-28T04:52:09;101837.38;;;1.70;100.00
41254;BME280;26987;59.928;30.306;2024-02-28T04:54:36;101828.38;;;1.61;100.00
41254;BME280;26987;59.928;30.306;2024-02-28T04:57:07;101803.75;;;1.49;100.00
41254;BME280;26987;59.928;30.306;2024-02-28T04:59:37;101833.81;;;1.71;100.00
41254;BME280;26987;59.928;30.306;2024-02-28T05:02:05;101850.00;;;1.78;100.00
41254;BME280;26987;59.928;30.306;2024-02-28T05:04:33;101836.34;;;1.73;100.00
41254;BME280;26987;59.928;30.306;2024-02-28T05:07:01;101847.63;;;1.86;100.00
41254;BME280;26987;59.928;30.306;2024-02-28T05:09:29;101827.19;;;1.77;100.00
41254;BME280;26987;59.928;30.306;2024-02-28T05:11:57;101833.31;;;1.78;100.00
41254;BME280;26987;59.928;30.306;2024-02-28T05:14:25;101845.34;;;1.82;100.00
41254;BME280;26987;59.928;30.306;2024-02-28T05:16:54;101853.16;;;1.83;100.00
41254;BME280;26987;59.928;30.306;2024-02-28T05:19:22;101826.22;;;1.67;100.00
41254;BME280;26987;59.928;30.306;2024-02-28T05:21:50;101834.63;;;1.72;100.00
41254;BME280;26987;59.928;30.306;2024-02-28T05:24:18;101839.44;;;1.78;100.00
41254;BME280;26987;59.928;30.306;2024-02-28T05:26:46;101832.59;;;1.75;100.00
41254;BME280;26987;59.928;30.306;2024-02-28T05:29:13;101844.25;;;1.84;100.00
41254;BME280;26987;59.928;30.306;2024-02-28T05:31:41;101847.25;;;1.80;100.00
41254;BME280;26987;59.928;30.306;2024-02-28T05:34:11;101843.16;;;1.87;100.00
41254;BME280;26987;59.928;30.306;2024-02-28T05:36:40;101838.25;;;1.82;100.00
41254;BME280;26987;59.928;30.306;2024-02-28T05:39:08;101841.38;;;1.76;100.00
41254;BME280;26987;59.928;30.306;2024-02-28T05:41:36;101838.25;;;1.82;100.00
41254;BME280;26987;59.928;30.306;2024-02-28T05:44:04;101821.91;;;1.77;100.00
41254;BME280;26987;59.928;30.306;2024-02-28T05:46:32;101843.75;;;1.91;100.00
41254;BME280;26987;59.928;30.306;2024-02-28T05:49:00;101850.47;;;1.95;100.00
41254;BME280;26987;59.928;30.306;2024-02-28T05:51:30;101846.50;;;2.00;100.00
41254;BME280;26987;59.928;30.306;2024-02-28T05:53:57;101849.03;;;2.02;100.00
41254;BME280;26987;59.928;30.306;2024-02-28T05:56:25;101855.28;;;2.01;100.00
41254;BME280;26987;59.928;30.306;2024-02-28T05:58:53;101844.97;;;1.86;100.00
41254;BME280;26987;59.928;30.306;2024-02-28T06:01:21;101853.38;;;1.92;100.00
41254;BME280;26987;59.928;30.306;2024-02-28T06:03:49;101844.72;;;1.89;100.00
41254;BME280;26987;59.928;30.306;2024-02-28T06:06:17;101852.44;;;1.93;100.00
41254;BME280;26987;59.928;30.306;2024-02-28T06:08:46;101843.28;;;1.97;100.00
41254;BME280;26987;59.928;30.306;2024-02-28T06:11:14;101853.84;;;1.97;100.00
41254;BME280;26987;59.928;30.306;2024-02-28T06:13:43;101840.03;;;2.05;100.00
41254;BME280;26987;59.928;30.306;2024-02-28T06:16:13;101844.34;;;2.06;100.00
41254;BME280;26987;59.928;30.306;2024-02-28T06:18:42;101846.91;;;1.96;100.00
41254;BME280;26987;59.928;30.306;2024-02-28T06:21:10;101841.31;;;1.99;100.00
41254;BME280;26987;59.928;30.306;2024-02-28T06:23:38;101826.22;;;1.78;100.00
41254;BME280;26987;59.928;30.306;2024-02-28T06:26:08;101808.19;;;1.72;100.00
41254;BME280;26987;59.928;30.306;2024-02-28T06:28:43;101841.25;;;1.89;100.00
41254;BME280;26987;59.928;30.306;2024-02-28T06:31:13;101856.00;;;1.92;100.00
41254;BME280;26987;59.928;30.306;2024-02-28T06:33:41;101852.19;;;1.96;100.00
41254;BME280;26987;59.928;30.306;2024-02-28T06:36:09;101853.13;;;1.95;100.00
41254;BME280;26987;59.928;30.306;2024-02-28T06:38:38;101855.28;;;2.01;100.00
41254;BME280;26987;59.928;30.306;2024-02-28T06:41:07;101853.63;;;2.00;100.00
41254;BME280;26987;59.928;30.306;2024-02-28T06:43:35;101851.56;;;1.92;100.00
41254;BME280;26987;59.928;30.306;2024-02-28T06:46:06;101859.38;;;1.94;100.00
41254;BME280;26987;59.928;30.306;2024-02-28T06:48:34;101847.00;;;1.83;100.00
41254;BME280;26987;59.928;30.306;2024-02-28T06:51:03;101865.53;;;1.94;100.00
41254;BME280;26987;59.928;30.306;2024-02-28T06:53:31;101861.69;;;1.98;100.00
41254;BME280;26987;59.928;30.306;2024-02-28T06:56:01;101855.03;;;2.04;100.00
41254;BME280;26987;59.928;30.306;2024-02-28T06:58:31;101854.56;;;2.10;100.00
41254;BME280;26987;59.928;30.306;2024-02-28T07:00:59;101844.22;;;2.07;100.00
41254;BME280;26987;59.928;30.306;2024-02-28T07:03:27;101856.84;;;2.15;100.00
41254;BME280;26987;59.928;30.306;2024-02-28T07:05:55;101860.91;;;2.19;100.00
41254;BME280;26987;59.928;30.306;2024-02-28T07:08:23;101824.28;;;1.92;100.00
41254;BME280;26987;59.928;30.306;2024-02-28T07:10:50;101854.19;;;2.15;100.00
41254;BME280;26987;59.928;30.306;2024-02-28T07:13:20;101868.72;;;2.21;100.00
41254;BME280;26987;59.928;30.306;2024-02-28T07:15:49;101873.06;;;2.22;100.00
41254;BME280;26987;59.928;30.306;2024-02-28T07:18:17;101827.41;;;1.97;100.00
41254;BME280;26987;59.928;30.306;2024-02-28T07:20:45;101875.13;;;2.18;100.00
41254;BME280;26987;59.928;30.306;2024-02-28T07:23:13;101864.41;;;2.08;100.00
41254;BME280;26987;59.928;30.306;2024-02-28T07:25:41;101865.72;;;2.14;100.00
41254;BME280;26987;59.928;30.306;2024-02-28T07:28:09;101867.06;;;2.08;100.00
41254;BME280;26987;59.928;30.306;2024-02-28T07:30:37;101865.38;;;2.07;100.00
41254;BME280;26987;59.928;30.306;2024-02-28T07:33:07;101843.84;;;2.00;100.00
41254;BME280;26987;59.928;30.306;2024-02-28T07:35:44;101863.44;;;2.21;100.00
41254;BME280;26987;59.928;30.306;2024-02-28T07:38:12;101871.13;;;2.24;100.00
41254;BME280;26987;59.928;30.306;2024-02-28T07:40:40;101862.09;;;2.26;100.00
41254;BME280;26987;59.928;30.306;2024-02-28T07:43:08;101860.06;;;2.30;100.00
41254;BME280;26987;59.928;30.306;2024-02-28T07:45:35;101865.78;;;2.47;100.00
41254;BME280;26987;59.928;30.306;2024-02-28T07:48:04;101856.63;;;2.39;100.00
41254;BME280;26987;59.928;30.306;2024-02-28T07:50:33;101860.50;;;2.47;100.00
41254;BME280;26987;59.928;30.306;2024-02-28T07:53:01;101857.06;;;2.56;100.00
41254;BME280;26987;59.928;30.306;2024-02-28T07:55:29;101846.09;;;2.61;100.00
41254;BME280;26987;59.928;30.306;2024-02-28T07:57:57;101853.41;;;2.69;100.00
41254;BME280;26987;59.928;30.306;2024-02-28T08:00:25;101851.22;;;2.74;100.00
41254;BME280;26987;59.928;30.306;2024-02-28T08:02:53;101812.03;;;2.56;100.00
41254;BME280;26987;59.928;30.306;2024-02-28T08:05:21;101849.13;;;2.89;100.00
41254;BME280;26987;59.928;30.306;2024-02-28T08:07:50;101847.75;;;2.95;100.00
41254;BME280;26987;59.928;30.306;2024-02-28T08:10:18;101846.41;;;3.00;100.00
41254;BME280;26987;59.928;30.306;2024-02-28T08:12:46;101845.16;;;3.05;100.00
41254;BME280;26987;59.928;30.306;2024-02-28T08:15:14;101835.78;;;3.00;100.00
41254;BME280;26987;59.928;30.306;2024-02-28T08:17:42;101851.47;;;3.13;100.00
41254;BME280;26987;59.928;30.306;2024-02-28T08:20:10;101837.28;;;3.14;100.00
41254;BME280;26987;59.928;30.306;2024-02-28T08:22:38;101845.94;;;3.17;100.00
41254;BME280;26987;59.928;30.306;2024-02-28T08:25:08;101847.81;;;3.26;100.00
41254;BME280;26987;59.928;30.306;2024-02-28T08:27:38;101836.03;;;3.19;100.00
41254;BME280;26987;59.928;30.306;2024-02-28T08:30:06;101845.41;;;3.23;100.00
41254;BME280;26987;59.928;30.306;2024-02-28T08:32:34;101828.75;;;3.11;100.00
41254;BME280;26987;59.928;30.306;2024-02-28T08:35:03;101845.16;;;3.26;100.00
41254;BME280;26987;59.928;30.306;2024-02-28T08:37:31;101838.75;;;3.28;100.00
41254;BME280;26987;59.928;30.306;2024-02-28T08:39:59;101845.59;;;3.31;100.00
41254;BME280;26987;59.928;30.306;2024-02-28T08:42:28;101793.13;;;3.03;100.00
41254;BME280;26987;59.928;30.306;2024-02-28T08:44:56;101841.97;;;3.32;100.00
41254;BME280;26987;59.928;30.306;2024-02-28T08:47:29;101813.16;;;3.18;100.00
41254;BME280;26987;59.928;30.306;2024-02-28T08:49:57;101830.53;;;3.32;100.00
41254;BME280;26987;59.928;30.306;2024-02-28T08:52:27;101841.47;;;3.38;100.00
41254;BME280;26987;59.928;30.306;2024-02-28T08:54:55;101846.22;;;3.45;100.00
41254;BME280;26987;59.928;30.306;2024-02-28T08:57:23;101848.63;;;3.48;100.00
41254;BME280;26987;59.928;30.306;2024-02-28T08:59:53;101843.88;;;3.51;100.00
41254;BME280;26987;59.928;30.306;2024-02-28T09:02:20;101706.72;;;2.60;100.00
41254;BME280;26987;59.928;30.306;2024-02-28T09:04:48;101855.34;;;3.52;100.00
41254;BME280;26987;59.928;30.306;2024-02-28T09:07:18;101858.00;;;3.52;100.00
41254;BME280;26987;59.928;30.306;2024-02-28T09:09:46;101838.81;;;3.38;100.00
41254;BME280;26987;59.928;30.306;2024-02-28T09:12:15;101836.97;;;3.39;100.00
41254;BME280;26987;59.928;30.306;2024-02-28T09:14:43;101854.22;;;3.55;100.00
41254;BME280;26987;59.928;30.306;2024-02-28T09:17:13;101836.19;;;3.48;100.00
41254;BME280;26987;59.928;30.306;2024-02-28T09:19:41;101848.06;;;3.54;100.00
41254;BME280;26987;59.928;30.306;2024-02-28T09:22:09;101835.22;;;3.49;100.00
41254;BME280;26987;59.928;30.306;2024-02-28T09:24:37;101827.09;;;3.41;100.00
41254;BME280;26987;59.928;30.306;2024-02-28T09:27:06;101834.50;;;3.47;100.00
41254;BME280;26987;59.928;30.306;2024-02-28T09:29:34;101844.88;;;3.60;100.00
41254;BME280;26987;59.928;30.306;2024-02-28T09:32:02;101843.03;;;3.51;100.00
41254;BME280;26987;59.928;30.306;2024-02-28T09:34:31;101853.09;;;3.57;100.00
41254;BME280;26987;59.928;30.306;2024-02-28T09:36:59;101833.75;;;3.35;100.00
41254;BME280;26987;59.928;30.306;2024-02-28T09:39:27;101845.25;;;3.46;100.00
41254;BME280;26987;59.928;30.306;2024-02-28T09:41:57;101853.78;;;3.49;100.00
41254;BME280;26987;59.928;30.306;2024-02-28T09:44:25;101867.63;;;3.53;100.00
41254;BME280;26987;59.928;30.306;2024-02-28T09:46:54;101843.00;;;3.41;100.00
41254;BME280;26987;59.928;30.306;2024-02-28T09:49:22;101874.84;;;3.51;100.00
41254;BME280;26987;59.928;30.306;2024-02-28T09:51:55;101871.81;;;3.56;100.00
41254;BME280;26987;59.928;30.306;2024-02-28T09:54:25;101854.50;;;3.51;100.00
41254;BME280;26987;59.928;30.306;2024-02-28T09:56:53;101869.75;;;3.59;100.00
41254;BME280;26987;59.928;30.306;2024-02-28T09:59:23;101863.72;;;3.57;100.00
41254;BME280;26987;59.928;30.306;2024-02-28T10:01:56;101870.88;;;3.66;100.00
41254;BME280;26987;59.928;30.306;2024-02-28T10:04:26;101872.28;;;3.71;100.00
41254;BME280;26987;59.928;30.306;2024-02-28T10:06:55;101854.97;;;3.66;100.00
41254;BME280;26987;59.928;30.306;2024-02-28T10:09:23;101878.78;;;3.78;100.00
41254;BME280;26987;59.928;30.306;2024-02-28T10:11:53;101864.38;;;3.81;100.00
41254;BME280;26987;59.928;30.306;2024-02-28T10:14:21;101858.94;;;3.82;100.00
41254;BME280;26987;59.928;30.306;2024-02-28T10:16:50;101865.66;;;3.86;100.00
41254;BME280;26987;59.928;30.306;2024-02-28T10:19:19;101869.16;;;3.87;100.00
41254;BME280;26987;59.928;30.306;2024-02-28T10:21:47;101842.97;;;3.72;100.00
41254;BME280;26987;59.928;30.306;2024-02-28T10:24:17;101854.56;;;3.71;100.00
41254;BME280;26987;59.928;30.306;2024-02-28T10:26:46;101843.22;;;3.59;100.00
41254;BME280;26987;59.928;30.306;2024-02-28T10:29:22;101844.06;;;3.60;100.00
41254;BME280;26987;59.928;30.306;2024-02-28T10:31:51;101832.38;;;3.41;100.00
41254;BME280;26987;59.928;30.306;2024-02-28T10:34:20;101849.41;;;3.70;100.00
41254;BME280;26987;59.928;30.306;2024-02-28T10:36:50;101842.69;;;3.65;100.00
41254;BME280;26987;59.928;30.306;2024-02-28T10:39:21;101846.22;;;3.76;100.00
41254;BME280;26987;59.928;30.306;2024-02-28T10:41:50;101849.59;;;3.78;100.00
41254;BME280;26987;59.928;30.306;2024-02-28T10:44:20;101852.94;;;3.80;100.00
41254;BME280;26987;59.928;30.306;2024-02-28T10:46:49;101851.81;;;3.83;100.00
41254;BME280;26987;59.928;30.306;2024-02-28T10:49:17;101837.81;;;3.71;100.00
41254;BME280;26987;59.928;30.306;2024-02-28T10:51:47;101849.75;;;3.86;100.00
41254;BME280;26987;59.928;30.306;2024-02-28T10:54:20;101853.09;;;3.88;100.00
41254;BME280;26987;59.928;30.306;2024-02-28T10:56:49;101842.03;;;3.83;100.00
41254;BME280;26987;59.928;30.306;2024-02-28T10:59:17;101848.19;;;3.84;100.00
41254;BME280;26987;59.928;30.306;2024-02-28T11:01:45;101830.03;;;3.79;100.00
41254;BME280;26987;59.928;30.306;2024-02-28T11:04:16;101831.16;;;3.76;100.00
41254;BME280;26987;59.928;30.306;2024-02-28T11:13:22;101854.78;;;3.99;100.00
41254;BME280;26987;59.928;30.306;2024-02-28T11:15:50;101848.75;;;3.87;100.00
41254;BME280;26987;59.928;30.306;2024-02-28T11:21:15;101845.97;;;3.89;100.00
41254;BME280;26987;59.928;30.306;2024-02-28T11:23:46;101856.72;;;3.87;100.00
41254;BME280;26987;59.928;30.306;2024-02-28T11:29:24;101845.63;;;3.72;100.00
41254;BME280;26987;59.928;30.306;2024-02-28T11:31:53;101837.66;;;3.62;100.00
41254;BME280;26987;59.928;30.306;2024-02-28T11:34:21;101844.53;;;3.75;100.00
41254;BME280;26987;59.928;30.306;2024-02-28T11:36:49;101832.63;;;3.69;100.00
41254;BME280;26987;59.928;30.306;2024-02-28T11:39:17;101839.78;;;3.78;100.00
41254;BME280;26987;59.928;30.306;2024-02-28T11:41:47;101843.44;;;3.77;100.00
41254;BME280;26987;59.928;30.306;2024-02-28T11:44:16;101829.03;;;3.70;100.00
41254;BME280;26987;59.928;30.306;2024-02-28T11:46:46;101847.63;;;3.80;100.00
41254;BME280;26987;59.928;30.306;2024-02-28T11:49:14;101832.38;;;3.72;100.00
41254;BME280;26987;59.928;30.306;2024-02-28T11:51:43;101837.00;;;3.80;100.00
41254;BME280;26987;59.928;30.306;2024-02-28T11:54:11;101815.72;;;3.60;100.00
41254;BME280;26987;59.928;30.306;2024-02-28T11:56:40;101839.63;;;3.70;100.00
41254;BME280;26987;59.928;30.306;2024-02-28T11:59:08;101793.84;;;3.37;100.00
41254;BME280;26987;59.928;30.306;2024-02-28T12:01:41;101829.69;;;3.62;100.00
41254;BME280;26987;59.928;30.306;2024-02-28T12:04:11;101853.19;;;3.77;100.00
41254;BME280;26987;59.928;30.306;2024-02-28T12:06:40;101845.50;;;3.74;100.00
41254;BME280;26987;59.928;30.306;2024-02-28T12:09:09;101832.09;;;3.65;100.00
41254;BME280;26987;59.928;30.306;2024-02-28T12:11:38;101843.38;;;3.68;100.00
41254;BME280;26987;59.928;30.306;2024-02-28T12:14:07;101829.09;;;3.59;100.00
41254;BME280;26987;59.928;30.306;2024-02-28T12:16:36;101835.72;;;3.64;100.00
41254;BME280;26987;59.928;30.306;2024-02-28T12:19:07;101840.91;;;3.76;100.00
41254;BME280;26987;59.928;30.306;2024-02-28T12:21:38;101833.94;;;3.75;100.00
41254;BME280;26987;59.928;30.306;2024-02-28T12:24:07;101842.56;;;3.77;100.00
41254;BME280;26987;59.928;30.306;2024-02-28T12:26:36;101820.22;;;3.70;100.00
41254;BME280;26987;59.928;30.306;2024-02-28T12:29:04;101830.31;;;3.76;100.00
41254;BME280;26987;59.928;30.306;2024-02-28T12:31:32;101845.94;;;3.79;100.00
41254;BME280;26987;59.928;30.306;2024-02-28T12:34:00;101827.03;;;3.62;100.00
41254;BME280;26987;59.928;30.306;2024-02-28T12:36:30;101833.63;;;3.68;100.00
41254;BME280;26987;59.928;30.306;2024-02-28T12:39:00;101841.75;;;3.76;100.00
41254;BME280;26987;59.928;30.306;2024-02-28T12:41:29;101845.06;;;3.69;100.00
41254;BME280;26987;59.928;30.306;2024-02-28T12:43:57;101835.16;;;3.71;100.00
41254;BME280;26987;59.928;30.306;2024-02-28T12:46:24;101821.34;;;3.67;100.00
41254;BME280;26987;59.928;30.306;2024-02-28T12:48:52;101833.63;;;3.68;100.00
41254;BME280;26987;59.928;30.306;2024-02-28T12:51:56;101828.78;;;3.83;100.00
41254;BME280;26987;59.928;30.306;2024-02-28T12:54:48;101765.94;;;3.33;100.00
41254;BME280;26987;59.928;30.306;2024-02-28T12:57:32;101807.06;;;3.58;100.00
41254;BME280;26987;59.928;30.306;2024-02-28T12:59:59;101814.75;;;3.61;100.00